sensor_id;sensor_type;location;lat;lon;timestamp;temperature;humidity
22112;DHT22;11222;50.872;4.312;2023-11-19T00:02:13;13.60;99.90
22112;DHT22;11222;50.872;4.312;2023-11-19T00:04:38;13.60;99.90
22112;DHT22;11222;50.872;4.312;2023-11-19T00:07:05;13.60;99.90
22112;DHT22;11222;50.872;4.312;2023-11-19T00:09:32;13.60;99.90
22112;DHT22;11222;50.872;4.312;2023-11-19T00:11:58;13.60;99.90
22112;DHT22;11222;50.872;4.312;2023-11-19T00:14:25;13.60;99.90
22112;DHT22;11222;50.872;4.312;2023-11-19T00:16:51;13.60;99.90
22112;DHT22;11222;50.872;4.312;2023-11-19T00:19:17;13.60;99.90
22112;DHT22;11222;50.872;4.312;2023-11-19T00:21:42;13.60;99.90
22112;DHT22;11222;50.872;4.312;2023-11-19T00:24:08;13.60;99.90
22112;DHT22;11222;50.872;4.312;2023-11-19T00:26:34;13.60;99.90
22112;DHT22;11222;50.872;4.312;2023-11-19T00:28:59;13.60;99.90
22112;DHT22;11222;50.872;4.312;2023-11-19T00:31:25;13.70;99.90
22112;DHT22;11222;50.872;4.312;2023-11-19T00:33:53;13.70;99.90
22112;DHT22;11222;50.872;4.312;2023-11-19T00:36:19;13.70;99.90
22112;DHT22;11222;50.872;4.312;2023-11-19T00:38:53;13.70;99.90
22112;DHT22;11222;50.872;4.312;2023-11-19T00:41:19;13.70;99.90
22112;DHT22;11222;50.872;4.312;2023-11-19T00:43:44;13.70;99.90
22112;DHT22;11222;50.872;4.312;2023-11-19T00:46:10;13.60;99.90
22112;DHT22;11222;50.872;4.312;2023-11-19T00:48:39;13.70;99.90
22112;DHT22;11222;50.872;4.312;2023-11-19T00:51:05;13.70;99.90
22112;DHT22;11222;50.872;4.312;2023-11-19T00:53:30;13.60;99.90
22112;DHT22;11222;50.872;4.312;2023-11-19T00:55:57;13.60;99.90
22112;DHT22;11222;50.872;4.312;2023-11-19T00:58:23;13.70;99.90
22112;DHT22;11222;50.872;4.312;2023-11-19T01:00:48;13.70;99.90
22112;DHT22;11222;50.872;4.312;2023-11-19T01:03:14;13.70;99.90
22112;DHT22;11222;50.872;4.312;2023-11-19T01:05:43;13.60;99.90
22112;DHT22;11222;50.872;4.312;2023-11-19T01:08:10;13.70;99.90
22112;DHT22;11222;50.872;4.312;2023-11-19T01:10:38;13.70;99.90
22112;DHT22;11222;50.872;4.312;2023-11-19T01:13:04;13.70;99.90
22112;DHT22;11222;50.872;4.312;2023-11-19T01:15:34;13.70;99.90
22112;DHT22;11222;50.872;4.312;2023-11-19T01:17:59;13.70;99.90
22112;DHT22;11222;50.872;4.312;2023-11-19T01:20:25;13.70;99.90
22112;DHT22;11222;50.872;4.312;2023-11-19T01:22:51;13.70;99.90
22112;DHT22;11222;50.872;4.312;2023-11-19T01:25:17;13.60;99.90
22112;DHT22;11222;50.872;4.312;2023-11-19T01:27:42;13.60;99.90
22112;DHT22;11222;50.872;4.312;2023-11-19T01:30:08;13.70;99.90
22112;DHT22;11222;50.872;4.312;2023-11-19T01:32:40;13.70;99.90
22112;DHT22;11222;50.872;4.312;2023-11-19T01:35:05;13.70;99.90
22112;DHT22;11222;50.872;4.312;2023-11-19T01:37:31;13.70;99.90
22112;DHT22;11222;50.872;4.312;2023-11-19T01:39:57;13.70;99.90
22112;DHT22;11222;50.872;4.312;2023-11-19T01:42:23;13.70;99.90
22112;DHT22;11222;50.872;4.312;2023-11-19T01:45:00;13.80;99.90
22112;DHT22;11222;50.872;4.312;2023-11-19T01:47:30;13.90;99.90
22112;DHT22;11222;50.872;4.312;2023-11-19T01:49:55;13.70;99.90
22112;DHT22;11222;50.872;4.312;2023-11-19T01:52:21;13.60;99.90
22112;DHT22;11222;50.872;4.312;2023-11-19T01:54:47;13.60;99.90
22112;DHT22;11222;50.872;4.312;2023-11-19T01:57:13;13.50;99.90
22112;DHT22;11222;50.872;4.312;2023-11-19T01:59:39;13.50;99.90
22112;DHT22;11222;50.872;4.312;2023-11-19T02:02:05;13.50;99.90
22112;DHT22;11222;50.872;4.312;2023-11-19T02:04:31;13.50;99.90
22112;DHT22;11222;50.872;4.312;2023-11-19T02:06:57;13.40;99.90
22112;DHT22;11222;50.872;4.312;2023-11-19T02:09:23;13.30;99.90
22112;DHT22;11222;50.872;4.312;2023-11-19T02:11:49;13.30;99.90
22112;DHT22;11222;50.872;4.312;2023-11-19T02:14:17;13.20;99.90
22112;DHT22;11222;50.872;4.312;2023-11-19T02:16:43;13.30;99.90
22112;DHT22;11222;50.872;4.312;2023-11-19T02:19:08;13.30;99.90
22112;DHT22;11222;50.872;4.312;2023-11-19T02:21:36;13.30;99.90
22112;DHT22;11222;50.872;4.312;2023-11-19T02:24:03;13.30;99.90
22112;DHT22;11222;50.872;4.312;2023-11-19T02:29:07;13.30;99.90
22112;DHT22;11222;50.872;4.312;2023-11-19T02:31:33;13.30;99.90
22112;DHT22;11222;50.872;4.312;2023-11-19T02:34:00;13.30;99.90
22112;DHT22;11222;50.872;4.312;2023-11-19T02:36:27;13.30;99.90
22112;DHT22;11222;50.872;4.312;2023-11-19T02:38:53;13.30;99.90
22112;DHT22;11222;50.872;4.312;2023-11-19T02:41:18;13.30;99.90
22112;DHT22;11222;50.872;4.312;2023-11-19T02:43:44;13.40;99.90
22112;DHT22;11222;50.872;4.312;2023-11-19T02:46:10;13.40;99.90
22112;DHT22;11222;50.872;4.312;2023-11-19T02:48:36;13.40;99.90
22112;DHT22;11222;50.872;4.312;2023-11-19T02:51:02;13.40;99.90
22112;DHT22;11222;50.872;4.312;2023-11-19T02:53:29;13.30;99.90
22112;DHT22;11222;50.872;4.312;2023-11-19T02:55:54;13.20;99.90
22112;DHT22;11222;50.872;4.312;2023-11-19T02:58:29;13.20;99.90
22112;DHT22;11222;50.872;4.312;2023-11-19T03:00:55;13.20;99.90
22112;DHT22;11222;50.872;4.312;2023-11-19T03:03:25;13.10;99.90
22112;DHT22;11222;50.872;4.312;2023-11-19T03:05:54;13.10;99.90
22112;DHT22;11222;50.872;4.312;2023-11-19T03:08:20;13.00;99.90
22112;DHT22;11222;50.872;4.312;2023-11-19T03:10:46;13.00;99.90
22112;DHT22;11222;50.872;4.312;2023-11-19T03:13:12;12.90;99.90
22112;DHT22;11222;50.872;4.312;2023-11-19T03:15:42;12.90;99.90
22112;DHT22;11222;50.872;4.312;2023-11-19T03:18:08;12.90;99.90
22112;DHT22;11222;50.872;4.312;2023-11-19T03:20:33;12.80;99.90
22112;DHT22;11222;50.872;4.312;2023-11-19T03:22:59;12.80;99.90
22112;DHT22;11222;50.872;4.312;2023-11-19T03:25:25;12.80;99.90
22112;DHT22;11222;50.872;4.312;2023-11-19T03:27:52;12.80;99.90
22112;DHT22;11222;50.872;4.312;2023-11-19T03:30:18;12.80;99.90
22112;DHT22;11222;50.872;4.312;2023-11-19T03:32:46;12.80;99.90
22112;DHT22;11222;50.872;4.312;2023-11-19T03:35:11;12.70;99.90
22112;DHT22;11222;50.872;4.312;2023-11-19T03:37:37;12.70;99.90
22112;DHT22;11222;50.872;4.312;2023-11-19T03:40:03;12.70;99.90
22112;DHT22;11222;50.872;4.312;2023-11-19T03:42:29;12.70;99.90
22112;DHT22;11222;50.872;4.312;2023-11-19T03:44:57;12.70;99.90
22112;DHT22;11222;50.872;4.312;2023-11-19T03:47:23;12.70;99.90
22112;DHT22;11222;50.872;4.312;2023-11-19T03:49:49;12.70;99.90
22112;DHT22;11222;50.872;4.312;2023-11-19T03:52:15;12.70;99.90
22112;DHT22;11222;50.872;4.312;2023-11-19T03:54:40;12.60;99.90
22112;DHT22;11222;50.872;4.312;2023-11-19T03:57:06;12.60;99.90
22112;DHT22;11222;50.872;4.312;2023-11-19T03:59:31;12.60;99.90
22112;DHT22;11222;50.872;4.312;2023-11-19T04:01:58;12.50;99.90
22112;DHT22;11222;50.872;4.312;2023-11-19T04:04:26;12.50;99.90
22112;DHT22;11222;50.872;4.312;2023-11-19T04:06:52;12.50;99.90
22112;DHT22;11222;50.872;4.312;2023-11-19T04:09:17;12.60;99.90
22112;DHT22;11222;50.872;4.312;2023-11-19T04:11:43;12.60;99.90
22112;DHT22;11222;50.872;4.312;2023-11-19T04:14:09;12.60;99.90
22112;DHT22;11222;50.872;4.312;2023-11-19T04:16:35;12.60;99.90
22112;DHT22;11222;50.872;4.312;2023-11-19T04:19:00;12.60;99.90
22112;DHT22;11222;50.872;4.312;2023-11-19T04:21:26;12.60;99.90
22112;DHT22;11222;50.872;4.312;2023-11-19T04:23:52;12.60;99.90
22112;DHT22;11222;50.872;4.312;2023-11-19T04:26:17;12.60;99.90
22112;DHT22;11222;50.872;4.312;2023-11-19T04:28:43;12.60;99.90
22112;DHT22;11222;50.872;4.312;2023-11-19T04:31:08;12.60;99.90
22112;DHT22;11222;50.872;4.312;2023-11-19T04:33:34;12.60;99.90
22112;DHT22;11222;50.872;4.312;2023-11-19T04:36:00;12.60;99.90
22112;DHT22;11222;50.872;4.312;2023-11-19T04:38:25;12.50;99.90
22112;DHT22;11222;50.872;4.312;2023-11-19T04:40:52;12.40;99.90
22112;DHT22;11222;50.872;4.312;2023-11-19T04:43:17;12.40;99.90
22112;DHT22;11222;50.872;4.312;2023-11-19T04:45:43;12.40;99.90
22112;DHT22;11222;50.872;4.312;2023-11-19T04:48:09;12.40;99.90
22112;DHT22;11222;50.872;4.312;2023-11-19T04:50:34;12.30;99.90
22112;DHT22;11222;50.872;4.312;2023-11-19T04:53:00;12.40;99.90
22112;DHT22;11222;50.872;4.312;2023-11-19T04:55:25;12.30;99.90
22112;DHT22;11222;50.872;4.312;2023-11-19T04:57:53;12.30;99.90
22112;DHT22;11222;50.872;4.312;2023-11-19T05:00:19;12.30;99.90
22112;DHT22;11222;50.872;4.312;2023-11-19T05:02:46;12.30;99.90
22112;DHT22;11222;50.872;4.312;2023-11-19T05:05:12;12.30;99.90
22112;DHT22;11222;50.872;4.312;2023-11-19T05:07:38;12.30;99.90
22112;DHT22;11222;50.872;4.312;2023-11-19T05:10:03;12.30;99.90
22112;DHT22;11222;50.872;4.312;2023-11-19T05:12:29;12.30;99.90
22112;DHT22;11222;50.872;4.312;2023-11-19T05:14:56;12.30;99.90
22112;DHT22;11222;50.872;4.312;2023-11-19T05:17:23;12.30;99.90
22112;DHT22;11222;50.872;4.312;2023-11-19T05:19:48;12.30;99.90
22112;DHT22;11222;50.872;4.312;2023-11-19T05:22:14;12.20;99.90
22112;DHT22;11222;50.872;4.312;2023-11-19T05:24:39;12.20;99.90
22112;DHT22;11222;50.872;4.312;2023-11-19T05:27:06;12.20;99.90
22112;DHT22;11222;50.872;4.312;2023-11-19T05:29:33;12.20;99.90
22112;DHT22;11222;50.872;4.312;2023-11-19T05:31:58;12.20;99.90
22112;DHT22;11222;50.872;4.312;2023-11-19T05:34:24;12.20;99.90
22112;DHT22;11222;50.872;4.312;2023-11-19T05:36:50;12.20;99.90
22112;DHT22;11222;50.872;4.312;2023-11-19T05:39:16;12.20;99.90
22112;DHT22;11222;50.872;4.312;2023-11-19T05:41:42;12.20;99.90
22112;DHT22;11222;50.872;4.312;2023-11-19T05:44:07;12.20;99.90
22112;DHT22;11222;50.872;4.312;2023-11-19T05:46:33;12.10;99.90
22112;DHT22;11222;50.872;4.312;2023-11-19T05:48:58;12.20;99.90
22112;DHT22;11222;50.872;4.312;2023-11-19T05:51:24;12.10;99.90
22112;DHT22;11222;50.872;4.312;2023-11-19T05:53:50;12.10;99.90
22112;DHT22;11222;50.872;4.312;2023-11-19T05:56:15;12.20;99.90
22112;DHT22;11222;50.872;4.312;2023-11-19T05:58:46;12.20;99.90
22112;DHT22;11222;50.872;4.312;2023-11-19T06:01:13;12.20;99.90
22112;DHT22;11222;50.872;4.312;2023-11-19T06:03:39;12.20;99.90
22112;DHT22;11222;50.872;4.312;2023-11-19T06:06:04;12.20;99.90
22112;DHT22;11222;50.872;4.312;2023-11-19T06:08:30;12.20;99.90
22112;DHT22;11222;50.872;4.312;2023-11-19T06:10:56;12.20;99.90
22112;DHT22;11222;50.872;4.312;2023-11-19T06:13:22;12.20;99.90
22112;DHT22;11222;50.872;4.312;2023-11-19T06:15:47;12.20;99.90
22112;DHT22;11222;50.872;4.312;2023-11-19T06:18:13;12.10;99.90
22112;DHT22;11222;50.872;4.312;2023-11-19T06:20:40;12.10;99.90
22112;DHT22;11222;50.872;4.312;2023-11-19T06:23:05;12.00;99.90
22112;DHT22;11222;50.872;4.312;2023-11-19T06:25:32;12.00;99.90
22112;DHT22;11222;50.872;4.312;2023-11-19T06:27:58;12.00;99.90
22112;DHT22;11222;50.872;4.312;2023-11-19T06:30:24;11.90;99.90
22112;DHT22;11222;50.872;4.312;2023-11-19T06:32:50;11.90;99.90
22112;DHT22;11222;50.872;4.312;2023-11-19T06:35:16;11.90;99.90
22112;DHT22;11222;50.872;4.312;2023-11-19T06:37:42;11.90;99.90
22112;DHT22;11222;50.872;4.312;2023-11-19T06:40:07;11.90;99.90
22112;DHT22;11222;50.872;4.312;2023-11-19T06:42:34;11.80;99.90
22112;DHT22;11222;50.872;4.312;2023-11-19T06:45:00;11.80;99.90
22112;DHT22;11222;50.872;4.312;2023-11-19T06:47:26;11.80;99.90
22112;DHT22;11222;50.872;4.312;2023-11-19T06:49:52;11.80;99.90
22112;DHT22;11222;50.872;4.312;2023-11-19T06:52:17;11.80;99.90
22112;DHT22;11222;50.872;4.312;2023-11-19T06:54:43;11.70;99.90
22112;DHT22;11222;50.872;4.312;2023-11-19T06:57:10;11.70;99.90
22112;DHT22;11222;50.872;4.312;2023-11-19T06:59:37;11.70;99.90
22112;DHT22;11222;50.872;4.312;2023-11-19T07:02:02;11.70;99.90
22112;DHT22;11222;50.872;4.312;2023-11-19T07:04:28;11.70;99.90
22112;DHT22;11222;50.872;4.312;2023-11-19T07:06:53;11.70;99.90
22112;DHT22;11222;50.872;4.312;2023-11-19T07:09:19;11.70;99.90
22112;DHT22;11222;50.872;4.312;2023-11-19T07:11:44;11.70;99.90
22112;DHT22;11222;50.872;4.312;2023-11-19T07:14:11;11.70;99.90
22112;DHT22;11222;50.872;4.312;2023-11-19T07:16:36;11.70;99.90
22112;DHT22;11222;50.872;4.312;2023-11-19T07:19:03;11.70;99.90
22112;DHT22;11222;50.872;4.312;2023-11-19T07:21:28;11.80;99.90
22112;DHT22;11222;50.872;4.312;2023-11-19T07:23:57;11.80;99.90
22112;DHT22;11222;50.872;4.312;2023-11-19T07:26:23;11.80;99.90
22112;DHT22;11222;50.872;4.312;2023-11-19T07:28:49;11.80;99.90
22112;DHT22;11222;50.872;4.312;2023-11-19T07:31:14;11.80;99.90
22112;DHT22;11222;50.872;4.312;2023-11-19T07:33:40;11.70;99.90
22112;DHT22;11222;50.872;4.312;2023-11-19T07:36:09;11.70;99.90
22112;DHT22;11222;50.872;4.312;2023-11-19T07:38:35;11.70;99.90
22112;DHT22;11222;50.872;4.312;2023-11-19T07:41:00;11.80;99.90
22112;DHT22;11222;50.872;4.312;2023-11-19T07:43:26;11.80;99.90
22112;DHT22;11222;50.872;4.312;2023-11-19T07:45:52;11.80;99.90
22112;DHT22;11222;50.872;4.312;2023-11-19T07:48:17;11.80;99.90
22112;DHT22;11222;50.872;4.312;2023-11-19T07:50:48;11.80;99.90
22112;DHT22;11222;50.872;4.312;2023-11-19T07:53:18;11.80;99.90
22112;DHT22;11222;50.872;4.312;2023-11-19T07:55:44;11.80;99.90
22112;DHT22;11222;50.872;4.312;2023-11-19T07:58:10;11.80;99.90
22112;DHT22;11222;50.872;4.312;2023-11-19T08:00:36;11.90;99.90
22112;DHT22;11222;50.872;4.312;2023-11-19T08:03:02;11.90;99.90
22112;DHT22;11222;50.872;4.312;2023-11-19T08:05:28;11.90;99.90
22112;DHT22;11222;50.872;4.312;2023-11-19T08:07:53;11.90;99.90
22112;DHT22;11222;50.872;4.312;2023-11-19T08:10:19;11.80;99.90
22112;DHT22;11222;50.872;4.312;2023-11-19T08:12:45;11.90;99.90
22112;DHT22;11222;50.872;4.312;2023-11-19T08:15:10;11.90;99.90
22112;DHT22;11222;50.872;4.312;2023-11-19T08:17:36;12.00;99.90
22112;DHT22;11222;50.872;4.312;2023-11-19T08:20:02;12.00;99.90
22112;DHT22;11222;50.872;4.312;2023-11-19T08:22:28;11.90;99.90
22112;DHT22;11222;50.872;4.312;2023-11-19T08:24:54;11.90;99.90
22112;DHT22;11222;50.872;4.312;2023-11-19T08:27:19;11.90;99.90
22112;DHT22;11222;50.872;4.312;2023-11-19T08:29:54;11.90;99.90
22112;DHT22;11222;50.872;4.312;2023-11-19T08:32:26;12.00;99.90
22112;DHT22;11222;50.872;4.312;2023-11-19T08:34:52;12.10;99.90
22112;DHT22;11222;50.872;4.312;2023-11-19T08:37:17;12.10;99.90
22112;DHT22;11222;50.872;4.312;2023-11-19T08:39:47;12.20;99.90
22112;DHT22;11222;50.872;4.312;2023-11-19T08:42:13;12.20;99.90
22112;DHT22;11222;50.872;4.312;2023-11-19T08:44:38;12.20;99.90
22112;DHT22;11222;50.872;4.312;2023-11-19T08:47:04;12.20;99.90
22112;DHT22;11222;50.872;4.312;2023-11-19T08:49:30;12.20;99.90
22112;DHT22;11222;50.872;4.312;2023-11-19T08:51:55;12.10;99.90
22112;DHT22;11222;50.872;4.312;2023-11-19T08:54:21;12.10;99.90
22112;DHT22;11222;50.872;4.312;2023-11-19T08:56:48;12.10;99.90
22112;DHT22;11222;50.872;4.312;2023-11-19T08:59:13;12.10;99.90
22112;DHT22;11222;50.872;4.312;2023-11-19T09:01:40;12.10;99.90
22112;DHT22;11222;50.872;4.312;2023-11-19T09:04:06;12.10;99.90
22112;DHT22;11222;50.872;4.312;2023-11-19T09:06:32;12.30;99.90
22112;DHT22;11222;50.872;4.312;2023-11-19T09:08:57;12.30;99.90
22112;DHT22;11222;50.872;4.312;2023-11-19T09:11:26;12.20;99.90
22112;DHT22;11222;50.872;4.312;2023-11-19T09:13:52;12.20;99.90
22112;DHT22;11222;50.872;4.312;2023-11-19T09:16:18;12.20;99.90
22112;DHT22;11222;50.872;4.312;2023-11-19T09:18:43;12.20;99.90
22112;DHT22;11222;50.872;4.312;2023-11-19T09:21:12;12.20;99.90
22112;DHT22;11222;50.872;4.312;2023-11-19T09:23:38;12.30;99.90
22112;DHT22;11222;50.872;4.312;2023-11-19T09:26:05;12.30;99.90
22112;DHT22;11222;50.872;4.312;2023-11-19T09:28:30;12.40;99.90
22112;DHT22;11222;50.872;4.312;2023-11-19T09:30:56;12.40;99.90
22112;DHT22;11222;50.872;4.312;2023-11-19T09:33:21;12.40;99.90
22112;DHT22;11222;50.872;4.312;2023-11-19T09:35:47;12.40;99.90
22112;DHT22;11222;50.872;4.312;2023-11-19T09:38:15;12.40;99.90
22112;DHT22;11222;50.872;4.312;2023-11-19T09:40:40;12.40;99.90
22112;DHT22;11222;50.872;4.312;2023-11-19T09:43:07;12.50;99.90
22112;DHT22;11222;50.872;4.312;2023-11-19T09:45:35;12.50;99.90
22112;DHT22;11222;50.872;4.312;2023-11-19T09:48:04;12.60;99.90
22112;DHT22;11222;50.872;4.312;2023-11-19T09:50:30;12.80;99.90
22112;DHT22;11222;50.872;4.312;2023-11-19T09:52:56;13.00;99.90
22112;DHT22;11222;50.872;4.312;2023-11-19T09:55:21;13.00;99.90
22112;DHT22;11222;50.872;4.312;2023-11-19T09:57:47;13.00;99.90
22112;DHT22;11222;50.872;4.312;2023-11-19T10:00:14;12.90;99.90
22112;DHT22;11222;50.872;4.312;2023-11-19T10:02:40;12.90;99.90
22112;DHT22;11222;50.872;4.312;2023-11-19T10:05:07;12.90;99.90
22112;DHT22;11222;50.872;4.312;2023-11-19T10:07:33;12.80;99.90
22112;DHT22;11222;50.872;4.312;2023-11-19T10:10:04;12.90;99.90
22112;DHT22;11222;50.872;4.312;2023-11-19T10:12:30;13.00;99.90
22112;DHT22;11222;50.872;4.312;2023-11-19T10:14:58;13.00;99.90
22112;DHT22;11222;50.872;4.312;2023-11-19T10:17:33;13.10;99.90
22112;DHT22;11222;50.872;4.312;2023-11-19T10:19:59;13.10;99.90
22112;DHT22;11222;50.872;4.312;2023-11-19T10:22:25;13.30;99.90
22112;DHT22;11222;50.872;4.312;2023-11-19T10:24:52;13.40;99.90
22112;DHT22;11222;50.872;4.312;2023-11-19T10:27:17;13.40;99.90
22112;DHT22;11222;50.872;4.312;2023-11-19T10:29:47;13.40;99.90
22112;DHT22;11222;50.872;4.312;2023-11-19T10:32:13;13.40;99.90
22112;DHT22;11222;50.872;4.312;2023-11-19T10:34:40;13.40;99.90
22112;DHT22;11222;50.872;4.312;2023-11-19T10:37:07;13.50;99.90
22112;DHT22;11222;50.872;4.312;2023-11-19T10:39:51;13.40;99.90
22112;DHT22;11222;50.872;4.312;2023-11-19T10:42:19;13.40;99.90
22112;DHT22;11222;50.872;4.312;2023-11-19T10:44:45;13.20;99.90
22112;DHT22;11222;50.872;4.312;2023-11-19T10:47:10;13.20;99.90
22112;DHT22;11222;50.872;4.312;2023-11-19T10:49:37;13.10;99.90
22112;DHT22;11222;50.872;4.312;2023-11-19T10:52:03;13.10;99.90
22112;DHT22;11222;50.872;4.312;2023-11-19T10:54:30;13.10;99.90
22112;DHT22;11222;50.872;4.312;2023-11-19T10:56:58;13.10;99.90
22112;DHT22;11222;50.872;4.312;2023-11-19T10:59:24;13.20;99.90
22112;DHT22;11222;50.872;4.312;2023-11-19T11:01:52;13.10;99.90
22112;DHT22;11222;50.872;4.312;2023-11-19T11:04:22;13.20;99.90
22112;DHT22;11222;50.872;4.312;2023-11-19T11:06:48;13.10;99.90
22112;DHT22;11222;50.872;4.312;2023-11-19T11:09:15;13.20;99.90
22112;DHT22;11222;50.872;4.312;2023-11-19T11:11:44;13.30;99.90
22112;DHT22;11222;50.872;4.312;2023-11-19T11:14:14;13.30;99.90
22112;DHT22;11222;50.872;4.312;2023-11-19T11:16:44;13.20;99.90
22112;DHT22;11222;50.872;4.312;2023-11-19T11:19:11;13.20;99.90
22112;DHT22;11222;50.872;4.312;2023-11-19T11:21:38;13.20;99.90
22112;DHT22;11222;50.872;4.312;2023-11-19T11:35:06;13.20;99.90
22112;DHT22;11222;50.872;4.312;2023-11-19T11:40:02;13.20;99.90
22112;DHT22;11222;50.872;4.312;2023-11-19T11:42:36;13.30;99.90
22112;DHT22;11222;50.872;4.312;2023-11-19T11:45:02;13.20;99.90
22112;DHT22;11222;50.872;4.312;2023-11-19T11:50:08;13.30;99.90
22112;DHT22;11222;50.872;4.312;2023-11-19T11:52:55;13.40;99.90
22112;DHT22;11222;50.872;4.312;2023-11-19T11:55:23;13.60;99.90
22112;DHT22;11222;50.872;4.312;2023-11-19T11:57:49;13.80;99.90
22112;DHT22;11222;50.872;4.312;2023-11-19T12:00:21;14.00;99.90
22112;DHT22;11222;50.872;4.312;2023-11-19T12:02:47;14.10;99.90
22112;DHT22;11222;50.872;4.312;2023-11-19T12:05:14;14.10;99.90
22112;DHT22;11222;50.872;4.312;2023-11-19T12:07:40;14.10;99.90
22112;DHT22;11222;50.872;4.312;2023-11-19T12:10:06;14.10;99.90
22112;DHT22;11222;50.872;4.312;2023-11-19T12:12:41;14.00;99.90
22112;DHT22;11222;50.872;4.312;2023-11-19T12:15:08;13.90;99.90
22112;DHT22;11222;50.872;4.312;2023-11-19T12:17:50;13.80;99.90
22112;DHT22;11222;50.872;4.312;2023-11-19T12:20:16;13.60;99.90
22112;DHT22;11222;50.872;4.312;2023-11-19T12:22:42;13.50;99.90
22112;DHT22;11222;50.872;4.312;2023-11-19T12:25:09;13.40;99.90
22112;DHT22;11222;50.872;4.312;2023-11-19T12:27:41;13.50;99.90
22112;DHT22;11222;50.872;4.312;2023-11-19T12:30:07;13.40;99.90
22112;DHT22;11222;50.872;4.312;2023-11-19T12:32:52;13.40;99.90
22112;DHT22;11222;50.872;4.312;2023-11-19T12:35:19;13.40;99.90
22112;DHT22;11222;50.872;4.312;2023-11-19T12:37:45;13.20;99.90
22112;DHT22;11222;50.872;4.312;2023-11-19T12:42:36;13.20;99.90
22112;DHT22;11222;50.872;4.312;2023-11-19T12:45:05;13.20;99.90
22112;DHT22;11222;50.872;4.312;2023-11-19T12:47:31;13.20;99.90
22112;DHT22;11222;50.872;4.312;2023-11-19T12:49:57;13.20;99.90
22112;DHT22;11222;50.872;4.312;2023-11-19T12:52:23;13.20;99.90
22112;DHT22;11222;50.872;4.312;2023-11-19T12:54:49;13.30;99.90
22112;DHT22;11222;50.872;4.312;2023-11-19T12:57:15;13.20;99.90
22112;DHT22;11222;50.872;4.312;2023-11-19T12:59:40;13.30;99.90
22112;DHT22;11222;50.872;4.312;2023-11-19T13:02:06;13.20;99.90
22112;DHT22;11222;50.872;4.312;2023-11-19T13:04:33;13.30;99.90
22112;DHT22;11222;50.872;4.312;2023-11-19T13:06:59;13.40;99.90
22112;DHT22;11222;50.872;4.312;2023-11-19T13:09:25;13.50;99.90
22112;DHT22;11222;50.872;4.312;2023-11-19T13:11:51;13.40;99.90
22112;DHT22;11222;50.872;4.312;2023-11-19T13:14:17;13.40;99.90
22112;DHT22;11222;50.872;4.312;2023-11-19T13:16:42;13.40;99.90
22112;DHT22;11222;50.872;4.312;2023-11-19T13:19:08;13.40;99.90
22112;DHT22;11222;50.872;4.312;2023-11-19T13:21:36;13.40;99.90
22112;DHT22;11222;50.872;4.312;2023-11-19T13:24:05;13.50;99.90
22112;DHT22;11222;50.872;4.312;2023-11-19T13:26:31;13.50;99.90
22112;DHT22;11222;50.872;4.312;2023-11-19T13:28:56;13.50;99.90
22112;DHT22;11222;50.872;4.312;2023-11-19T13:31:22;13.40;99.90
22112;DHT22;11222;50.872;4.312;2023-11-19T13:33:48;13.30;99.90
22112;DHT22;11222;50.872;4.312;2023-11-19T13:36:13;13.30;99.90
22112;DHT22;11222;50.872;4.312;2023-11-19T13:38:39;13.20;99.90
22112;DHT22;11222;50.872;4.312;2023-11-19T13:41:07;13.20;99.90
22112;DHT22;11222;50.872;4.312;2023-11-19T13:43:35;13.20;99.90
22112;DHT22;11222;50.872;4.312;2023-11-19T13:46:00;13.20;99.90
22112;DHT22;11222;50.872;4.312;2023-11-19T13:48:26;13.20;99.90
22112;DHT22;11222;50.872;4.312;2023-11-19T13:51:11;13.10;99.90
22112;DHT22;11222;50.872;4.312;2023-11-19T13:53:37;13.10;99.90
22112;DHT22;11222;50.872;4.312;2023-11-19T13:56:03;13.10;99.90
22112;DHT22;11222;50.872;4.312;2023-11-19T13:58:28;13.10;99.90
22112;DHT22;11222;50.872;4.312;2023-11-19T14:00:54;13.10;99.90
22112;DHT22;11222;50.872;4.312;2023-11-19T14:03:19;13.20;99.90
22112;DHT22;11222;50.872;4.312;2023-11-19T14:05:45;13.20;99.90
22112;DHT22;11222;50.872;4.312;2023-11-19T14:08:11;13.10;99.90
22112;DHT22;11222;50.872;4.312;2023-11-19T14:10:37;13.20;99.90
22112;DHT22;11222;50.872;4.312;2023-11-19T14:13:04;13.20;99.90
22112;DHT22;11222;50.872;4.312;2023-11-19T14:15:30;13.10;99.90
22112;DHT22;11222;50.872;4.312;2023-11-19T14:17:55;13.20;99.90
22112;DHT22;11222;50.872;4.312;2023-11-19T14:20:21;13.10;99.90
22112;DHT22;11222;50.872;4.312;2023-11-19T14:22:46;13.10;99.90
22112;DHT22;11222;50.872;4.312;2023-11-19T14:25:14;13.10;99.90
22112;DHT22;11222;50.872;4.312;2023-11-19T14:27:40;13.10;99.90
22112;DHT22;11222;50.872;4.312;2023-11-19T14:30:06;13.10;99.90
22112;DHT22;11222;50.872;4.312;2023-11-19T14:32:33;13.00;99.90
22112;DHT22;11222;50.872;4.312;2023-11-19T14:34:59;12.90;99.90
22112;DHT22;11222;50.872;4.312;2023-11-19T14:37:24;12.80;99.90
22112;DHT22;11222;50.872;4.312;2023-11-19T14:39:50;12.70;99.90
22112;DHT22;11222;50.872;4.312;2023-11-19T14:42:18;12.70;99.90
22112;DHT22;11222;50.872;4.312;2023-11-19T14:44:44;12.80;99.90
22112;DHT22;11222;50.872;4.312;2023-11-19T14:47:09;12.80;99.90
22112;DHT22;11222;50.872;4.312;2023-11-19T14:49:35;12.70;99.90
22112;DHT22;11222;50.872;4.312;2023-11-19T14:52:02;12.70;99.90
22112;DHT22;11222;50.872;4.312;2023-11-19T14:54:28;12.70;99.90
22112;DHT22;11222;50.872;4.312;2023-11-19T14:56:54;12.70;99.90
22112;DHT22;11222;50.872;4.312;2023-11-19T14:59:19;12.70;99.90
22112;DHT22;11222;50.872;4.312;2023-11-19T15:01:45;12.80;99.90
22112;DHT22;11222;50.872;4.312;2023-11-19T15:04:11;12.80;99.90
22112;DHT22;11222;50.872;4.312;2023-11-19T15:06:37;12.80;99.90
22112;DHT22;11222;50.872;4.312;2023-11-19T15:09:03;12.80;99.90
22112;DHT22;11222;50.872;4.312;2023-11-19T15:11:28;12.80;99.90
22112;DHT22;11222;50.872;4.312;2023-11-19T15:13:54;12.80;99.90
22112;DHT22;11222;50.872;4.312;2023-11-19T15:16:20;12.80;99.90
22112;DHT22;11222;50.872;4.312;2023-11-19T15:18:51;12.80;99.90
22112;DHT22;11222;50.872;4.312;2023-11-19T15:21:17;12.80;99.90
22112;DHT22;11222;50.872;4.312;2023-11-19T15:23:43;12.70;99.90
22112;DHT22;11222;50.872;4.312;2023-11-19T15:26:08;12.80;99.90
22112;DHT22;11222;50.872;4.312;2023-11-19T15:28:36;12.80;99.90
22112;DHT22;11222;50.872;4.312;2023-11-19T15:31:01;12.80;99.90
22112;DHT22;11222;50.872;4.312;2023-11-19T15:33:28;12.80;99.90
22112;DHT22;11222;50.872;4.312;2023-11-19T15:35:53;12.80;99.90
22112;DHT22;11222;50.872;4.312;2023-11-19T15:38:19;12.90;99.90
22112;DHT22;11222;50.872;4.312;2023-11-19T15:40:44;12.90;99.90
22112;DHT22;11222;50.872;4.312;2023-11-19T15:43:10;12.90;99.90
22112;DHT22;11222;50.872;4.312;2023-11-19T15:45:36;12.90;99.90
22112;DHT22;11222;50.872;4.312;2023-11-19T15:48:04;12.90;99.90